createdAt,value
2022-09-28T04:00:19.127Z,99280.62
2022-09-28T04:03:21.670Z,99283.38
2022-09-28T04:06:26.808Z,99287.63
2022-09-28T04:09:29.194Z,99293.19
2022-09-28T04:12:31.331Z,99280.88
2022-09-28T04:15:33.601Z,99279.41
2022-09-28T04:18:35.663Z,99270.56
2022-09-28T04:21:38.189Z,99275.16
2022-09-28T04:24:43.478Z,99283.66
2022-09-28T04:28:04.298Z,99291.44
2022-09-28T04:31:16.127Z,99273.25
2022-09-28T04:34:21.514Z,99275.91
2022-09-28T04:37:24.321Z,99275.44
2022-09-28T04:40:26.909Z,99266.59
2022-09-28T04:43:29.114Z,99278.34
2022-09-28T04:46:32.317Z,99286.69
2022-09-28T04:49:38.245Z,99277.37
2022-09-28T04:52:40.924Z,99268.72
2022-09-28T04:55:43.086Z,99276.00
2022-09-28T04:58:50.322Z,99275.06
2022-09-28T05:01:55.399Z,99267.78
2022-09-28T05:04:59.287Z,99267.00
2022-09-28T05:08:01.554Z,99282.31
2022-09-28T05:11:07.453Z,99283.94
2022-09-28T05:14:11.601Z,99288.34
2022-09-28T05:17:15.050Z,99284.22
2022-09-28T05:20:17.670Z,99289.78
2022-09-28T05:23:20.061Z,99281.88
2022-09-28T05:26:22.877Z,99298.78
2022-09-28T05:29:27.168Z,99300.53
2022-09-28T05:32:32.506Z,99304.31
2022-09-28T05:35:34.885Z,99300.03
2022-09-28T05:38:37.165Z,99307.31
2022-09-28T05:41:39.546Z,99312.38
2022-09-28T05:44:41.623Z,99305.44
2022-09-28T05:47:46.070Z,99299.41
2022-09-28T05:50:52.619Z,99301.91
2022-09-28T05:53:56.523Z,99295.59
2022-09-28T05:56:58.741Z,99291.50
2022-09-28T06:00:04.828Z,99297.50
2022-09-28T06:03:14.713Z,99294.81
2022-09-28T06:06:17.146Z,99295.13
2022-09-28T06:09:23.844Z,99293.53
2022-09-28T06:12:28.674Z,99287.53
2022-09-28T06:15:32.681Z,99282.09
2022-09-28T06:18:35.380Z,99285.28
2022-09-28T06:21:38.181Z,99292.41
2022-09-28T06:24:41.289Z,99291.28
2022-09-28T06:27:43.349Z,99291.38
2022-09-28T06:30:45.811Z,99294.22
2022-09-28T06:33:51.703Z,99294.72
2022-09-28T06:36:53.998Z,99295.19
2022-09-28T06:39:56.388Z,99298.63
2022-09-28T06:43:00.689Z,99298.88
2022-09-28T06:46:03.394Z,99300.75
2022-09-28T06:49:09.186Z,99306.09
2022-09-28T06:52:14.890Z,99304.44
2022-09-28T06:55:18.632Z,99302.88
2022-09-28T06:58:21.389Z,99306.84
2022-09-28T07:01:24.811Z,99311.28
2022-09-28T07:04:31.078Z,99310.09
2022-09-28T07:07:34.545Z,99311.38
2022-09-28T07:10:42.029Z,99301.69
2022-09-28T07:13:50.911Z,99308.13
2022-09-28T07:17:12.354Z,99310.28
2022-09-28T07:20:19.213Z,99310.38
2022-09-28T07:23:23.281Z,99304.47
2022-09-28T07:26:33.146Z,99303.34
2022-09-28T07:29:35.303Z,99296.50
2022-09-28T07:32:40.231Z,99293.84
2022-09-28T07:35:50.651Z,99298.41
2022-09-28T07:38:53.001Z,99298.53
2022-09-28T07:41:59.644Z,99293.78
2022-09-28T07:45:06.878Z,99293.19
2022-09-28T07:48:09.268Z,99286.88
2022-09-28T07:51:12.656Z,99293.44
2022-09-28T07:54:14.755Z,99296.78
2022-09-28T07:57:19.405Z,99300.00
2022-09-28T08:00:22.210Z,99301.56
2022-09-28T08:03:24.801Z,99308.81
2022-09-28T08:06:27.323Z,99313.97
2022-09-28T08:09:29.946Z,99307.91
2022-09-28T08:12:36.000Z,99303.12
2022-09-28T08:15:38.438Z,99309.34
2022-09-28T08:18:41.410Z,99291.00
2022-09-28T08:21:46.392Z,99284.59
2022-09-28T08:24:49.575Z,99273.47
2022-09-28T08:27:52.631Z,99271.56
2022-09-28T08:30:58.689Z,99272.00
2022-09-28T08:34:02.978Z,99264.69
2022-09-28T08:37:09.211Z,99269.31
2022-09-28T08:40:19.027Z,99264.25
2022-09-28T08:43:57.707Z,99277.84
2022-09-28T08:47:05.754Z,99289.66
2022-09-28T08:50:16.575Z,99296.50
2022-09-28T08:54:00.826Z,99288.97
2022-09-28T08:57:16.433Z,99300.25
2022-09-28T09:00:31.174Z,99294.38
2022-09-28T09:03:37.693Z,99286.91
2022-09-28T09:06:43.946Z,99280.50
2022-09-28T09:10:20.715Z,99291.31
2022-09-28T09:13:41.015Z,99285.13
2022-09-28T09:17:13.853Z,99276.94
2022-09-28T09:20:29.962Z,99272.78
2022-09-28T09:23:43.159Z,99268.06
2022-09-28T09:26:45.713Z,99261.03
2022-09-28T09:30:23.889Z,99270.56
2022-09-28T09:34:12.035Z,99270.00
2022-09-28T09:37:30.058Z,99266.97
2022-09-28T09:40:44.701Z,99260.75
2022-09-28T09:44:03.084Z,99257.41
2022-09-28T09:47:11.477Z,99267.59
2022-09-28T09:50:35.267Z,99256.59
2022-09-28T09:53:45.918Z,99261.84
2022-09-28T09:57:03.634Z,99275.00
2022-09-28T10:00:14.291Z,99273.41
2022-09-28T10:03:39.049Z,99275.69
2022-09-28T10:06:42.341Z,99264.34
2022-09-28T10:09:48.225Z,99272.25
2022-09-28T10:12:52.996Z,99265.56
2022-09-28T10:15:56.240Z,99276.37
2022-09-28T10:18:59.909Z,99286.81
2022-09-28T10:22:15.909Z,99282.38
2022-09-28T10:25:19.842Z,99284.00
2022-09-28T10:28:32.938Z,99263.69
2022-09-28T10:31:40.450Z,99280.38
2022-09-28T10:34:45.450Z,99277.06
2022-09-28T10:38:05.062Z,99266.81
2022-09-28T10:41:13.507Z,99281.34
2022-09-28T10:44:19.193Z,99275.34
2022-09-28T10:47:26.506Z,99275.81
2022-09-28T10:50:29.002Z,99279.50
2022-09-28T10:53:34.731Z,99273.44
2022-09-28T10:56:40.793Z,99269.53
2022-09-28T10:59:43.810Z,99264.13
2022-09-28T11:02:47.017Z,99265.25
2022-09-28T11:06:02.505Z,99258.91
2022-09-28T11:09:29.693Z,99256.28
2022-09-28T11:12:43.039Z,99247.97
2022-09-28T11:15:45.993Z,99245.75
2022-09-28T11:18:49.464Z,99244.44
2022-09-28T11:21:51.775Z,99235.16
2022-09-28T11:25:18.159Z,99235.69
2022-09-28T11:28:27.654Z,99235.25
2022-09-28T11:31:31.460Z,99229.06
2022-09-28T11:34:59.250Z,99230.44
2022-09-28T11:38:25.454Z,99229.91
2022-09-28T11:41:31.485Z,99232.13
2022-09-28T11:44:48.221Z,99233.97
2022-09-28T11:48:01.245Z,99219.47
2022-09-28T11:51:29.293Z,99225.94
2022-09-28T11:54:57.066Z,99232.56
2022-09-28T11:58:35.097Z,99226.97
2022-09-28T12:01:45.923Z,99223.06
2022-09-28T12:04:55.270Z,99204.12
2022-09-28T12:08:08.244Z,99206.97
2022-09-28T12:11:20.482Z,99190.50
2022-09-28T12:14:38.157Z,99190.91
2022-09-28T12:17:46.164Z,99189.16
2022-09-28T12:20:55.189Z,99184.94
2022-09-28T12:24:22.897Z,99193.56
2022-09-28T12:27:41.024Z,99187.72
2022-09-28T12:30:45.176Z,99183.50
2022-09-28T12:33:50.954Z,99182.38
2022-09-28T12:37:10.630Z,99172.47
2022-09-28T12:40:41.481Z,99172.91
2022-09-28T12:44:09.864Z,99157.69
2022-09-28T12:47:34.847Z,99166.31
2022-09-28T12:50:55.989Z,99163.00
2022-09-28T12:54:28.822Z,99168.16
2022-09-28T12:57:38.021Z,99165.88
2022-09-28T13:01:17.579Z,99165.59
2022-09-28T13:05:08.986Z,99164.59
2022-09-28T13:08:31.545Z,99165.59
2022-09-28T13:12:05.177Z,99157.91
2022-09-28T13:15:17.569Z,99162.69
2022-09-28T13:18:37.273Z,99157.06
2022-09-28T13:22:12.377Z,99144.16
2022-09-28T13:25:18.261Z,99147.00
2022-09-28T13:28:26.226Z,99153.00
2022-09-28T13:31:34.949Z,99160.28
2022-09-28T13:34:39.538Z,99157.66
2022-09-28T13:37:41.892Z,99164.69
2022-09-28T13:41:03.462Z,99151.66
2022-09-28T13:44:12.619Z,99146.66
2022-09-28T13:47:38.904Z,99140.09
2022-09-28T13:51:23.544Z,99142.66
2022-09-28T13:54:50.416Z,99149.69
2022-09-28T13:57:58.680Z,99144.94
2022-09-28T14:01:10.547Z,99150.53
2022-09-28T14:04:25.106Z,99142.75
2022-09-28T14:08:11.168Z,99138.56
2022-09-28T14:11:34.166Z,99144.66
2022-09-28T14:14:51.234Z,99150.59
2022-09-28T14:18:08.369Z,99145.59
2022-09-28T14:21:45.762Z,99147.16
2022-09-28T14:25:04.209Z,99144.47
2022-09-28T14:28:37.690Z,99141.69
2022-09-28T14:31:43.554Z,99128.84
2022-09-28T14:34:54.838Z,99141.78
2022-09-28T14:38:24.766Z,99133.97
2022-09-28T14:41:43.148Z,99135.19
2022-09-28T14:45:06.599Z,99135.66
2022-09-28T14:48:18.939Z,99128.62
2022-09-28T14:51:41.118Z,99121.91
2022-09-28T14:54:49.137Z,99125.06
2022-09-28T14:57:55.077Z,99131.00
2022-09-28T15:01:05.194Z,99130.53
2022-09-28T15:04:12.673Z,99127.41
2022-09-28T15:07:22.770Z,99123.56
2022-09-28T15:10:33.405Z,99120.44
2022-09-28T15:13:35.574Z,99122.63
2022-09-28T15:16:38.074Z,99118.34
2022-09-28T15:19:53.656Z,99118.28
2022-09-28T15:22:57.244Z,99111.94
2022-09-28T15:25:59.314Z,99108.34
2022-09-28T15:29:04.237Z,99108.78
2022-09-28T15:32:06.649Z,99104.03
